sensor_id;sensor_type;location;lat;lon;timestamp;pressure;altitude;pressure_sealevel;temperature;humidity
17054;BME280;8643;48.824;11.422;2023-05-23T00:00:05;96561.75;;;16.05;100.00
17054;BME280;8643;48.824;11.422;2023-05-23T00:02:39;96561.38;;;16.06;100.00
17054;BME280;8643;48.824;11.422;2023-05-23T00:05:09;96559.09;;;16.12;100.00
17054;BME280;8643;48.824;11.422;2023-05-23T00:07:38;96559.84;;;16.09;100.00
17054;BME280;8643;48.824;11.422;2023-05-23T00:10:07;96565.91;;;16.22;99.55
17054;BME280;8643;48.824;11.422;2023-05-23T00:12:36;96556.19;;;16.01;100.00
17054;BME280;8643;48.824;11.422;2023-05-23T00:15:07;96560.97;;;16.04;100.00
17054;BME280;8643;48.824;11.422;2023-05-23T00:17:36;96563.09;;;15.84;100.00
17054;BME280;8643;48.824;11.422;2023-05-23T00:20:08;96554.75;;;15.81;100.00
17054;BME280;8643;48.824;11.422;2023-05-23T00:22:38;96557.00;;;15.71;100.00
17054;BME280;8643;48.824;11.422;2023-05-23T00:25:09;96563.03;;;15.81;100.00
17054;BME280;8643;48.824;11.422;2023-05-23T00:27:38;96563.00;;;15.77;100.00
17054;BME280;8643;48.824;11.422;2023-05-23T00:30:07;96565.28;;;15.71;100.00
17054;BME280;8643;48.824;11.422;2023-05-23T00:32:36;96564.59;;;15.78;100.00
17054;BME280;8643;48.824;11.422;2023-05-23T00:35:07;96572.53;;;15.83;100.00
17054;BME280;8643;48.824;11.422;2023-05-23T00:37:36;96571.16;;;15.70;100.00
17054;BME280;8643;48.824;11.422;2023-05-23T00:40:06;96575.41;;;15.64;100.00
17054;BME280;8643;48.824;11.422;2023-05-23T00:42:35;96570.75;;;15.68;100.00
17054;BME280;8643;48.824;11.422;2023-05-23T00:45:05;96573.13;;;15.69;100.00
17054;BME280;8643;48.824;11.422;2023-05-23T00:47:34;96576.19;;;15.91;100.00
17054;BME280;8643;48.824;11.422;2023-05-23T00:50:03;96579.41;;;15.97;100.00
17054;BME280;8643;48.824;11.422;2023-05-23T00:52:35;96582.28;;;16.04;100.00
17054;BME280;8643;48.824;11.422;2023-05-23T00:55:05;96577.72;;;15.88;100.00
17054;BME280;8643;48.824;11.422;2023-05-23T00:57:35;96573.47;;;15.94;100.00
17054;BME280;8643;48.824;11.422;2023-05-23T01:00:08;96571.97;;;16.01;100.00
17054;BME280;8643;48.824;11.422;2023-05-23T01:02:41;96578.59;;;15.92;100.00
17054;BME280;8643;48.824;11.422;2023-05-23T01:05:13;96577.28;;;15.83;100.00
17054;BME280;8643;48.824;11.422;2023-05-23T01:07:46;96573.25;;;15.76;100.00
17054;BME280;8643;48.824;11.422;2023-05-23T01:10:18;96579.66;;;15.84;100.00
17054;BME280;8643;48.824;11.422;2023-05-23T01:12:55;96576.91;;;15.84;100.00
17054;BME280;8643;48.824;11.422;2023-05-23T01:15:33;96577.72;;;15.88;100.00
17054;BME280;8643;48.824;11.422;2023-05-23T01:18:09;96574.56;;;15.86;100.00
17054;BME280;8643;48.824;11.422;2023-05-23T01:20:42;96575.94;;;15.73;100.00
17054;BME280;8643;48.824;11.422;2023-05-23T01:23:49;96591.69;;;15.72;100.00
17054;BME280;8643;48.824;11.422;2023-05-23T01:26:32;96586.19;;;15.46;100.00
17054;BME280;8643;48.824;11.422;2023-05-23T01:29:18;96586.41;;;15.33;100.00
17054;BME280;8643;48.824;11.422;2023-05-23T01:31:52;96581.84;;;15.45;100.00
17054;BME280;8643;48.824;11.422;2023-05-23T01:34:22;96580.41;;;15.54;100.00
17054;BME280;8643;48.824;11.422;2023-05-23T01:36:54;96585.13;;;15.54;100.00
17054;BME280;8643;48.824;11.422;2023-05-23T01:39:23;96580.16;;;15.63;100.00
17054;BME280;8643;48.824;11.422;2023-05-23T01:41:52;96579.78;;;15.65;100.00
17054;BME280;8643;48.824;11.422;2023-05-23T01:44:22;96586.81;;;15.62;100.00
17054;BME280;8643;48.824;11.422;2023-05-23T01:46:51;96590.38;;;15.63;100.00
17054;BME280;8643;48.824;11.422;2023-05-23T01:49:21;96581.00;;;15.71;100.00
17054;BME280;8643;48.824;11.422;2023-05-23T01:51:52;96579.28;;;15.86;100.00
17054;BME280;8643;48.824;11.422;2023-05-23T01:54:21;96585.78;;;15.74;100.00
17054;BME280;8643;48.824;11.422;2023-05-23T01:56:50;96589.16;;;15.60;100.00
17054;BME280;8643;48.824;11.422;2023-05-23T01:59:19;96589.75;;;15.46;100.00
17054;BME280;8643;48.824;11.422;2023-05-23T02:01:50;96578.72;;;15.46;100.00
17054;BME280;8643;48.824;11.422;2023-05-23T02:04:19;96586.13;;;15.38;100.00
17054;BME280;8643;48.824;11.422;2023-05-23T02:06:48;96576.59;;;15.36;100.00
17054;BME280;8643;48.824;11.422;2023-05-23T02:09:17;96575.13;;;15.42;100.00
17054;BME280;8643;48.824;11.422;2023-05-23T02:11:46;96575.13;;;15.42;100.00
17054;BME280;8643;48.824;11.422;2023-05-23T02:14:14;96582.16;;;15.39;100.00
17054;BME280;8643;48.824;11.422;2023-05-23T02:16:44;96593.06;;;15.29;100.00
17054;BME280;8643;48.824;11.422;2023-05-23T02:19:15;96595.81;;;15.29;100.00
17054;BME280;8643;48.824;11.422;2023-05-23T02:21:46;96588.75;;;15.05;100.00
17054;BME280;8643;48.824;11.422;2023-05-23T02:24:14;96598.34;;;14.68;100.00
17054;BME280;8643;48.824;11.422;2023-05-23T02:26:44;96596.44;;;14.49;100.00
17054;BME280;8643;48.824;11.422;2023-05-23T02:29:13;96594.50;;;14.30;100.00
17054;BME280;8643;48.824;11.422;2023-05-23T02:31:42;96592.56;;;14.11;100.00
17054;BME280;8643;48.824;11.422;2023-05-23T02:34:11;96594.94;;;13.93;100.00
17054;BME280;8643;48.824;11.422;2023-05-23T02:36:41;96599.00;;;13.80;100.00
17054;BME280;8643;48.824;11.422;2023-05-23T02:39:10;96602.34;;;13.69;100.00
17054;BME280;8643;48.824;11.422;2023-05-23T02:41:39;96596.22;;;13.60;100.00
17054;BME280;8643;48.824;11.422;2023-05-23T02:44:08;96591.03;;;13.55;100.00
17054;BME280;8643;48.824;11.422;2023-05-23T02:46:37;96594.78;;;13.47;100.00
17054;BME280;8643;48.824;11.422;2023-05-23T02:49:06;96594.34;;;13.45;100.00
17054;BME280;8643;48.824;11.422;2023-05-23T02:51:34;96606.38;;;13.56;100.00
17054;BME280;8643;48.824;11.422;2023-05-23T02:54:05;96600.44;;;13.73;100.00
17054;BME280;8643;48.824;11.422;2023-05-23T02:56:36;96597.41;;;13.98;100.00
17054;BME280;8643;48.824;11.422;2023-05-23T02:59:05;96602.41;;;14.12;100.00
17054;BME280;8643;48.824;11.422;2023-05-23T03:01:34;96603.13;;;14.28;100.00
17054;BME280;8643;48.824;11.422;2023-05-23T03:04:02;96598.16;;;14.15;100.00
17054;BME280;8643;48.824;11.422;2023-05-23T03:06:32;96611.03;;;13.91;100.00
17054;BME280;8643;48.824;11.422;2023-05-23T03:09:04;96604.38;;;13.72;100.00
17054;BME280;8643;48.824;11.422;2023-05-23T03:11:34;96599.72;;;13.77;100.00
17054;BME280;8643;48.824;11.422;2023-05-23T03:14:02;96597.78;;;13.97;100.00
17054;BME280;8643;48.824;11.422;2023-05-23T03:16:31;96607.56;;;13.94;100.00
17054;BME280;8643;48.824;11.422;2023-05-23T03:19:00;96605.25;;;13.96;100.00
17054;BME280;8643;48.824;11.422;2023-05-23T03:21:30;96595.66;;;13.90;100.00
17054;BME280;8643;48.824;11.422;2023-05-23T03:23:59;96601.41;;;13.81;100.00
17054;BME280;8643;48.824;11.422;2023-05-23T03:26:30;96598.72;;;13.85;100.00
17054;BME280;8643;48.824;11.422;2023-05-23T03:28:59;96601.69;;;13.96;100.00
17054;BME280;8643;48.824;11.422;2023-05-23T03:31:28;96611.03;;;13.91;100.00
17054;BME280;8643;48.824;11.422;2023-05-23T03:33:57;96615.22;;;14.04;100.00
17054;BME280;8643;48.824;11.422;2023-05-23T03:36:25;96616.97;;;14.12;100.00
17054;BME280;8643;48.824;11.422;2023-05-23T03:38:54;96614.94;;;14.29;100.00
17054;BME280;8643;48.824;11.422;2023-05-23T03:41:24;96609.41;;;14.29;100.00
17054;BME280;8643;48.824;11.422;2023-05-23T03:43:55;96619.94;;;14.43;100.00
17054;BME280;8643;48.824;11.422;2023-05-23T03:46:24;96620.59;;;14.36;100.00
17054;BME280;8643;48.824;11.422;2023-05-23T03:48:53;96612.38;;;14.40;100.00
17054;BME280;8643;48.824;11.422;2023-05-23T03:51:22;96612.16;;;14.48;100.00
17054;BME280;8643;48.824;11.422;2023-05-23T03:53:52;96614.56;;;14.30;100.00
17054;BME280;8643;48.824;11.422;2023-05-23T03:56:21;96612.47;;;14.24;100.00
17054;BME280;8643;48.824;11.422;2023-05-23T03:58:50;96608.88;;;14.20;100.00
17054;BME280;8643;48.824;11.422;2023-05-23T04:01:20;96618.13;;;14.31;100.00
17054;BME280;8643;48.824;11.422;2023-05-23T04:03:49;96602.19;;;14.21;100.00
17054;BME280;8643;48.824;11.422;2023-05-23T04:06:21;96616.91;;;14.09;100.00
17054;BME280;8643;48.824;11.422;2023-05-23T04:08:51;96617.84;;;13.97;100.00
17054;BME280;8643;48.824;11.422;2023-05-23T04:11:19;96606.69;;;14.09;100.00
17054;BME280;8643;48.824;11.422;2023-05-23T04:13:50;96612.78;;;14.19;100.00
17054;BME280;8643;48.824;11.422;2023-05-23T04:16:21;96623.56;;;14.27;100.00
17054;BME280;8643;48.824;11.422;2023-05-23T04:18:50;96635.09;;;14.33;100.00
17054;BME280;8643;48.824;11.422;2023-05-23T04:21:20;96643.69;;;14.51;100.00
17054;BME280;8643;48.824;11.422;2023-05-23T04:24:00;96639.44;;;14.54;100.00
17054;BME280;8643;48.824;11.422;2023-05-23T04:26:29;96636.38;;;14.59;100.00
17054;BME280;8643;48.824;11.422;2023-05-23T04:28:59;96633.91;;;14.54;100.00
17054;BME280;8643;48.824;11.422;2023-05-23T04:31:32;96633.03;;;14.69;100.00
17054;BME280;8643;48.824;11.422;2023-05-23T04:34:01;96638.38;;;14.81;100.00
17054;BME280;8643;48.824;11.422;2023-05-23T04:36:35;96636.72;;;14.77;100.00
17054;BME280;8643;48.824;11.422;2023-05-23T04:39:05;96640.09;;;14.90;100.00
17054;BME280;8643;48.824;11.422;2023-05-23T04:41:39;96642.28;;;15.03;100.00
17054;BME280;8643;48.824;11.422;2023-05-23T04:44:25;96645.59;;;15.13;100.00
17054;BME280;8643;48.824;11.422;2023-05-23T04:47:22;96644.91;;;15.19;100.00
17054;BME280;8643;48.824;11.422;2023-05-23T04:50:00;96650.13;;;15.25;100.00
17054;BME280;8643;48.824;11.422;2023-05-23T04:52:30;96644.84;;;15.39;100.00
17054;BME280;8643;48.824;11.422;2023-05-23T04:55:01;96637.66;;;15.34;100.00
17054;BME280;8643;48.824;11.422;2023-05-23T04:57:30;96652.25;;;15.35;100.00
17054;BME280;8643;48.824;11.422;2023-05-23T05:00:02;96649.25;;;15.44;100.00
17054;BME280;8643;48.824;11.422;2023-05-23T05:02:35;96657.63;;;15.51;100.00
17054;BME280;8643;48.824;11.422;2023-05-23T05:05:05;96660.22;;;15.40;100.00
17054;BME280;8643;48.824;11.422;2023-05-23T05:07:34;96657.94;;;15.46;100.00
17054;BME280;8643;48.824;11.422;2023-05-23T05:10:05;96663.19;;;15.54;100.00
17054;BME280;8643;48.824;11.422;2023-05-23T05:12:34;96668.19;;;15.72;100.00
17054;BME280;8643;48.824;11.422;2023-05-23T05:15:03;96669.16;;;15.83;100.00
17054;BME280;8643;48.824;11.422;2023-05-23T05:17:32;96679.13;;;15.91;100.00
17054;BME280;8643;48.824;11.422;2023-05-23T05:20:09;96671.38;;;16.01;100.00
17054;BME280;8643;48.824;11.422;2023-05-23T05:22:39;96678.44;;;16.28;100.00
17054;BME280;8643;48.824;11.422;2023-05-23T05:25:10;96672.00;;;16.51;100.00
17054;BME280;8643;48.824;11.422;2023-05-23T05:27:39;96681.22;;;16.62;100.00
17054;BME280;8643;48.824;11.422;2023-05-23T05:30:12;96678.63;;;16.43;100.00
17054;BME280;8643;48.824;11.422;2023-05-23T05:32:51;96682.09;;;16.36;100.00
17054;BME280;8643;48.824;11.422;2023-05-23T05:35:21;96687.91;;;16.27;100.00
17054;BME280;8643;48.824;11.422;2023-05-23T05:37:50;96697.78;;;16.28;100.00
17054;BME280;8643;48.824;11.422;2023-05-23T05:40:20;96701.16;;;16.45;100.00
17054;BME280;8643;48.824;11.422;2023-05-23T05:42:50;96697.13;;;16.73;100.00
17054;BME280;8643;48.824;11.422;2023-05-23T05:45:21;96692.34;;;17.03;100.00
17054;BME280;8643;48.824;11.422;2023-05-23T05:47:50;96691.00;;;17.31;100.00
17054;BME280;8643;48.824;11.422;2023-05-23T05:50:22;96688.91;;;17.66;100.00
17054;BME280;8643;48.824;11.422;2023-05-23T05:52:51;96689.31;;;17.71;100.00
17054;BME280;8643;48.824;11.422;2023-05-23T05:55:19;96688.25;;;17.87;100.00
17054;BME280;8643;48.824;11.422;2023-05-23T05:57:52;96687.66;;;18.15;100.00
17054;BME280;8643;48.824;11.422;2023-05-23T06:00:21;96698.91;;;18.47;100.00
17054;BME280;8643;48.824;11.422;2023-05-23T06:02:52;96699.91;;;19.05;100.00
17054;BME280;8643;48.824;11.422;2023-05-23T06:05:44;96702.28;;;19.03;100.00
17054;BME280;8643;48.824;11.422;2023-05-23T06:08:13;96701.00;;;18.76;100.00
17054;BME280;8643;48.824;11.422;2023-05-23T06:10:42;96706.19;;;18.84;100.00
17054;BME280;8643;48.824;11.422;2023-05-23T06:13:11;96707.84;;;19.18;98.85
17054;BME280;8643;48.824;11.422;2023-05-23T06:15:42;96718.97;;;19.54;97.76
17054;BME280;8643;48.824;11.422;2023-05-23T06:18:12;96716.19;;;19.32;98.16
17054;BME280;8643;48.824;11.422;2023-05-23T06:20:42;96729.31;;;19.60;95.00
17054;BME280;8643;48.824;11.422;2023-05-23T06:23:15;96717.38;;;19.20;96.62
17054;BME280;8643;48.824;11.422;2023-05-23T06:25:45;96718.13;;;19.07;96.60
17054;BME280;8643;48.824;11.422;2023-05-23T06:28:14;96721.25;;;18.87;98.00
17054;BME280;8643;48.824;11.422;2023-05-23T06:30:45;96721.19;;;18.76;98.31
17054;BME280;8643;48.824;11.422;2023-05-23T06:33:15;96724.31;;;18.64;99.16
17054;BME280;8643;48.824;11.422;2023-05-23T06:35:45;96727.38;;;18.44;99.48
17054;BME280;8643;48.824;11.422;2023-05-23T06:38:13;96724.94;;;18.28;99.79
17054;BME280;8643;48.824;11.422;2023-05-23T06:40:43;96722.59;;;18.34;100.00
17054;BME280;8643;48.824;11.422;2023-05-23T06:43:14;96726.53;;;18.33;100.00
17054;BME280;8643;48.824;11.422;2023-05-23T06:46:05;96717.44;;;18.29;100.00
17054;BME280;8643;48.824;11.422;2023-05-23T06:48:35;96728.13;;;18.34;100.00
17054;BME280;8643;48.824;11.422;2023-05-23T06:51:05;96731.31;;;18.36;99.15
17054;BME280;8643;48.824;11.422;2023-05-23T06:53:34;96727.75;;;18.32;99.97
17054;BME280;8643;48.824;11.422;2023-05-23T06:56:03;96727.38;;;18.37;100.00
17054;BME280;8643;48.824;11.422;2023-05-23T06:58:38;96723.91;;;18.55;100.00
17054;BME280;8643;48.824;11.422;2023-05-23T07:01:07;96730.63;;;18.54;99.39
17054;BME280;8643;48.824;11.422;2023-05-23T07:03:42;96740.16;;;18.63;100.00
17054;BME280;8643;48.824;11.422;2023-05-23T07:06:13;96743.31;;;18.55;100.00
17054;BME280;8643;48.824;11.422;2023-05-23T07:08:42;96747.66;;;18.59;99.91
17054;BME280;8643;48.824;11.422;2023-05-23T07:11:11;96746.91;;;18.66;99.71
17054;BME280;8643;48.824;11.422;2023-05-23T07:13:43;96749.72;;;18.80;98.42
17054;BME280;8643;48.824;11.422;2023-05-23T07:16:20;96752.25;;;19.14;97.07
17054;BME280;8643;48.824;11.422;2023-05-23T07:19:01;96751.41;;;18.99;99.28
17054;BME280;8643;48.824;11.422;2023-05-23T07:21:35;96753.44;;;19.13;96.60
17054;BME280;8643;48.824;11.422;2023-05-23T07:24:05;96755.78;;;19.04;96.81
17054;BME280;8643;48.824;11.422;2023-05-23T07:26:34;96760.50;;;18.93;100.00
17054;BME280;8643;48.824;11.422;2023-05-23T07:29:05;96753.09;;;19.47;95.35
17054;BME280;8643;48.824;11.422;2023-05-23T07:31:35;96753.13;;;19.90;93.51
17054;BME280;8643;48.824;11.422;2023-05-23T07:34:04;96755.13;;;20.08;92.81
17054;BME280;8643;48.824;11.422;2023-05-23T07:36:43;96752.34;;;19.93;92.44
17054;BME280;8643;48.824;11.422;2023-05-23T07:39:12;96745.81;;;20.76;89.72
17054;BME280;8643;48.824;11.422;2023-05-23T07:41:42;96747.75;;;21.60;86.20
17054;BME280;8643;48.824;11.422;2023-05-23T07:44:10;96756.09;;;20.82;86.77
17054;BME280;8643;48.824;11.422;2023-05-23T07:46:39;96755.44;;;20.46;87.56
17054;BME280;8643;48.824;11.422;2023-05-23T07:49:07;96763.41;;;20.29;89.80
17054;BME280;8643;48.824;11.422;2023-05-23T07:51:36;96762.63;;;20.07;94.02
17054;BME280;8643;48.824;11.422;2023-05-23T07:54:07;96766.59;;;20.21;91.76
17054;BME280;8643;48.824;11.422;2023-05-23T07:56:39;96772.53;;;20.26;88.30
17054;BME280;8643;48.824;11.422;2023-05-23T07:59:08;96761.44;;;20.26;90.78
17054;BME280;8643;48.824;11.422;2023-05-23T08:01:36;96767.34;;;20.43;90.21
17054;BME280;8643;48.824;11.422;2023-05-23T08:04:06;96762.84;;;20.88;87.77
17054;BME280;8643;48.824;11.422;2023-05-23T08:06:47;96766.06;;;21.61;81.43
17054;BME280;8643;48.824;11.422;2023-05-23T08:09:41;96765.81;;;21.27;85.60
17054;BME280;8643;48.824;11.422;2023-05-23T08:12:13;96762.84;;;21.63;84.03
17054;BME280;8643;48.824;11.422;2023-05-23T08:14:43;96759.22;;;21.02;80.65
17054;BME280;8643;48.824;11.422;2023-05-23T08:17:32;96770.19;;;20.21;88.12
17054;BME280;8643;48.824;11.422;2023-05-23T08:20:01;96769.81;;;20.05;88.05
17054;BME280;8643;48.824;11.422;2023-05-23T08:22:31;96765.81;;;20.13;86.58
17054;BME280;8643;48.824;11.422;2023-05-23T08:25:01;96767.78;;;20.23;88.65
17054;BME280;8643;48.824;11.422;2023-05-23T08:27:32;96768.97;;;20.26;87.46
17054;BME280;8643;48.824;11.422;2023-05-23T08:30:10;96772.53;;;20.33;84.85
17054;BME280;8643;48.824;11.422;2023-05-23T08:32:39;96769.00;;;20.11;84.26
17054;BME280;8643;48.824;11.422;2023-05-23T08:35:08;96782.47;;;20.27;83.99
17054;BME280;8643;48.824;11.422;2023-05-23T08:37:40;96781.66;;;20.30;84.44
17054;BME280;8643;48.824;11.422;2023-05-23T08:40:14;96781.59;;;20.63;84.22
17054;BME280;8643;48.824;11.422;2023-05-23T08:42:49;96774.13;;;21.37;82.31
17054;BME280;8643;48.824;11.422;2023-05-23T08:45:19;96772.72;;;21.74;77.98
17054;BME280;8643;48.824;11.422;2023-05-23T08:47:51;96767.94;;;21.75;77.40
17054;BME280;8643;48.824;11.422;2023-05-23T08:50:23;96773.31;;;21.40;75.18
17054;BME280;8643;48.824;11.422;2023-05-23T08:52:56;96772.56;;;22.76;71.95
17054;BME280;8643;48.824;11.422;2023-05-23T08:55:29;96780.09;;;23.13;71.47
17054;BME280;8643;48.824;11.422;2023-05-23T08:58:00;96773.19;;;22.56;73.68
17054;BME280;8643;48.824;11.422;2023-05-23T09:00:51;96767.44;;;22.70;73.09
17054;BME280;8643;48.824;11.422;2023-05-23T09:03:20;96768.22;;;22.71;72.42
17054;BME280;8643;48.824;11.422;2023-05-23T09:06:05;96784.69;;;23.27;69.37
17054;BME280;8643;48.824;11.422;2023-05-23T09:08:35;96779.91;;;22.17;73.76
17054;BME280;8643;48.824;11.422;2023-05-23T09:11:06;96785.63;;;22.03;73.40
17054;BME280;8643;48.824;11.422;2023-05-23T09:13:37;96791.59;;;21.45;76.39
17054;BME280;8643;48.824;11.422;2023-05-23T09:16:11;96786.63;;;21.00;78.84
17054;BME280;8643;48.824;11.422;2023-05-23T09:18:45;96793.34;;;21.10;79.06
17054;BME280;8643;48.824;11.422;2023-05-23T09:21:16;96794.91;;;21.18;80.57
17054;BME280;8643;48.824;11.422;2023-05-23T09:23:54;96799.38;;;21.01;81.08
17054;BME280;8643;48.824;11.422;2023-05-23T09:26:25;96803.75;;;21.02;82.09
17054;BME280;8643;48.824;11.422;2023-05-23T09:28:57;96803.50;;;21.46;78.34
17054;BME280;8643;48.824;11.422;2023-05-23T09:31:26;96800.31;;;21.51;78.76
17054;BME280;8643;48.824;11.422;2023-05-23T09:33:57;96798.06;;;21.28;80.68
17054;BME280;8643;48.824;11.422;2023-05-23T09:36:28;96807.22;;;21.21;77.63
17054;BME280;8643;48.824;11.422;2023-05-23T09:39:01;96811.00;;;20.67;80.46
17054;BME280;8643;48.824;11.422;2023-05-23T09:41:34;96809.47;;;20.23;83.72
17054;BME280;8643;48.824;11.422;2023-05-23T09:44:08;96810.28;;;19.81;85.30
17054;BME280;8643;48.824;11.422;2023-05-23T09:46:37;96808.63;;;19.65;86.04
17054;BME280;8643;48.824;11.422;2023-05-23T09:49:15;96812.63;;;19.75;88.01
17054;BME280;8643;48.824;11.422;2023-05-23T09:51:57;96814.25;;;19.83;88.28
17054;BME280;8643;48.824;11.422;2023-05-23T09:54:25;96814.28;;;20.05;84.25
17054;BME280;8643;48.824;11.422;2023-05-23T09:56:58;96817.38;;;20.64;83.67
17054;BME280;8643;48.824;11.422;2023-05-23T09:59:30;96821.38;;;21.63;77.89
17054;BME280;8643;48.824;11.422;2023-05-23T10:02:02;96824.31;;;22.46;71.58
17054;BME280;8643;48.824;11.422;2023-05-23T10:04:35;96813.50;;;22.03;72.03
17054;BME280;8643;48.824;11.422;2023-05-23T10:07:13;96815.47;;;22.06;73.63
17054;BME280;8643;48.824;11.422;2023-05-23T10:09:53;96826.41;;;22.31;70.29
17054;BME280;8643;48.824;11.422;2023-05-23T10:12:46;96830.16;;;22.13;73.02
17054;BME280;8643;48.824;11.422;2023-05-23T10:15:16;96828.56;;;22.12;70.59
17054;BME280;8643;48.824;11.422;2023-05-23T10:18:09;96825.06;;;22.50;71.25
17054;BME280;8643;48.824;11.422;2023-05-23T10:20:46;96825.75;;;21.60;71.46
17054;BME280;8643;48.824;11.422;2023-05-23T10:23:16;96833.19;;;20.96;76.60
17054;BME280;8643;48.824;11.422;2023-05-23T10:25:47;96822.03;;;21.03;76.61
17054;BME280;8643;48.824;11.422;2023-05-23T10:28:18;96829.28;;;20.83;76.80
17054;BME280;8643;48.824;11.422;2023-05-23T10:30:47;96828.16;;;21.54;73.54
17054;BME280;8643;48.824;11.422;2023-05-23T10:33:16;96819.50;;;22.84;71.02
17054;BME280;8643;48.824;11.422;2023-05-23T10:35:55;96820.88;;;22.69;64.55
17054;BME280;8643;48.824;11.422;2023-05-23T10:38:33;96820.16;;;23.61;64.29
17054;BME280;8643;48.824;11.422;2023-05-23T10:41:09;96820.72;;;23.76;61.43
17054;BME280;8643;48.824;11.422;2023-05-23T10:43:48;96823.69;;;23.65;64.60
17054;BME280;8643;48.824;11.422;2023-05-23T10:46:19;96824.03;;;23.05;64.26
17054;BME280;8643;48.824;11.422;2023-05-23T10:48:54;96815.28;;;22.27;67.21
17054;BME280;8643;48.824;11.422;2023-05-23T10:51:24;96825.41;;;21.43;67.87
17054;BME280;8643;48.824;11.422;2023-05-23T10:53:54;96824.41;;;21.01;69.84
17054;BME280;8643;48.824;11.422;2023-05-23T10:56:23;96829.69;;;20.56;73.74
17054;BME280;8643;48.824;11.422;2023-05-23T10:58:54;96822.13;;;20.67;73.02
17054;BME280;8643;48.824;11.422;2023-05-23T11:01:24;96818.25;;;21.42;73.22
17054;BME280;8643;48.824;11.422;2023-05-23T11:03:54;96810.09;;;22.26;71.36
17054;BME280;8643;48.824;11.422;2023-05-23T11:06:31;96807.66;;;22.77;66.47
17054;BME280;8643;48.824;11.422;2023-05-23T11:09:03;96794.78;;;22.83;63.05
17054;BME280;8643;48.824;11.422;2023-05-23T11:11:54;96807.75;;;22.66;63.42
17054;BME280;8643;48.824;11.422;2023-05-23T11:14:51;96802.72;;;23.22;61.91
17054;BME280;8643;48.824;11.422;2023-05-23T11:17:32;96804.59;;;23.87;59.07
17054;BME280;8643;48.824;11.422;2023-05-23T11:20:04;96808.50;;;23.66;60.56
17054;BME280;8643;48.824;11.422;2023-05-23T11:22:34;96814.13;;;24.17;58.16
17054;BME280;8643;48.824;11.422;2023-05-23T11:25:07;96806.50;;;23.05;62.69
17054;BME280;8643;48.824;11.422;2023-05-23T11:27:37;96800.22;;;22.63;62.37
17054;BME280;8643;48.824;11.422;2023-05-23T11:30:09;96801.75;;;23.64;60.63
17054;BME280;8643;48.824;11.422;2023-05-23T11:32:40;96799.59;;;23.75;62.21
17054;BME280;8643;48.824;11.422;2023-05-23T11:35:10;96803.94;;;24.94;61.10
17054;BME280;8643;48.824;11.422;2023-05-23T11:37:39;96790.31;;;25.36;57.93
17054;BME280;8643;48.824;11.422;2023-05-23T11:40:28;96803.16;;;24.50;61.49
17054;BME280;8643;48.824;11.422;2023-05-23T11:42:58;96792.97;;;24.16;62.07
17054;BME280;8643;48.824;11.422;2023-05-23T11:45:29;96796.69;;;24.57;59.93
17054;BME280;8643;48.824;11.422;2023-05-23T11:48:05;96800.56;;;24.83;55.56
17054;BME280;8643;48.824;11.422;2023-05-23T11:50:42;96796.78;;;25.13;53.35
17054;BME280;8643;48.824;11.422;2023-05-23T11:53:11;96795.00;;;23.61;57.73
17054;BME280;8643;48.824;11.422;2023-05-23T11:55:48;96786.88;;;25.09;54.80
17054;BME280;8643;48.824;11.422;2023-05-23T11:58:20;96791.94;;;24.74;54.34
17054;BME280;8643;48.824;11.422;2023-05-23T12:00:51;96783.25;;;23.73;58.24
17054;BME280;8643;48.824;11.422;2023-05-23T12:03:21;96791.47;;;23.30;58.21
17054;BME280;8643;48.824;11.422;2023-05-23T12:05:50;96802.81;;;22.43;62.52
17054;BME280;8643;48.824;11.422;2023-05-23T12:08:19;96807.66;;;21.86;63.37
17054;BME280;8643;48.824;11.422;2023-05-23T12:10:51;96796.38;;;21.48;63.89
17054;BME280;8643;48.824;11.422;2023-05-23T12:13:22;96810.25;;;22.91;61.89
17054;BME280;8643;48.824;11.422;2023-05-23T12:15:55;96810.59;;;24.60;56.78
17054;BME280;8643;48.824;11.422;2023-05-23T12:18:28;96808.19;;;24.82;55.56
17054;BME280;8643;48.824;11.422;2023-05-23T12:20:59;96816.19;;;24.60;54.30
17054;BME280;8643;48.824;11.422;2023-05-23T12:23:29;96813.25;;;24.44;56.37
17054;BME280;8643;48.824;11.422;2023-05-23T12:26:05;96813.28;;;23.38;56.90
17054;BME280;8643;48.824;11.422;2023-05-23T12:28:36;96817.31;;;23.92;54.64
17054;BME280;8643;48.824;11.422;2023-05-23T12:31:10;96818.91;;;24.64;54.63
17054;BME280;8643;48.824;11.422;2023-05-23T12:33:39;96802.75;;;23.77;55.26
17054;BME280;8643;48.824;11.422;2023-05-23T12:36:10;96826.16;;;24.38;53.48
17054;BME280;8643;48.824;11.422;2023-05-23T12:38:40;96828.56;;;24.63;51.58
17054;BME280;8643;48.824;11.422;2023-05-23T12:41:15;96828.72;;;24.76;53.34
17054;BME280;8643;48.824;11.422;2023-05-23T12:43:50;96830.47;;;25.30;51.04
17054;BME280;8643;48.824;11.422;2023-05-23T12:46:22;96833.84;;;25.94;50.08
17054;BME280;8643;48.824;11.422;2023-05-23T12:48:51;96832.56;;;25.46;51.84
17054;BME280;8643;48.824;11.422;2023-05-23T12:51:20;96832.88;;;25.84;46.50
17054;BME280;8643;48.824;11.422;2023-05-23T12:53:50;96839.50;;;25.57;50.13
17054;BME280;8643;48.824;11.422;2023-05-23T12:56:20;96836.66;;;25.41;49.34
17054;BME280;8643;48.824;11.422;2023-05-23T12:58:49;96838.84;;;24.69;51.92
17054;BME280;8643;48.824;11.422;2023-05-23T13:01:17;96834.84;;;25.31;48.76
17054;BME280;8643;48.824;11.422;2023-05-23T13:03:47;96841.97;;;25.35;50.56
17054;BME280;8643;48.824;11.422;2023-05-23T13:06:17;96839.53;;;25.90;46.99
17054;BME280;8643;48.824;11.422;2023-05-23T13:08:45;96839.06;;;24.55;49.36
17054;BME280;8643;48.824;11.422;2023-05-23T13:11:14;96844.44;;;25.10;49.75
17054;BME280;8643;48.824;11.422;2023-05-23T13:13:43;96847.97;;;25.14;48.86
17054;BME280;8643;48.824;11.422;2023-05-23T13:16:13;96847.16;;;24.02;50.30
17054;BME280;8643;48.824;11.422;2023-05-23T13:18:42;96840.13;;;23.59;53.64